sensor_id;sensor_type;location;lat;lon;timestamp;P1;durP1;ratioP1;P2;durP2;ratioP2
27580;SDS011;63557;52.302;7.964;2022-12-10T00:05:00;75.32;;;35.50;;
27580;SDS011;63557;52.302;7.964;2022-12-10T00:10:00;74.87;;;35.07;;
27580;SDS011;63557;52.302;7.964;2022-12-10T00:15:00;79.20;;;34.40;;
27580;SDS011;63557;52.302;7.964;2022-12-10T00:20:01;77.33;;;33.67;;
27580;SDS011;63557;52.302;7.964;2022-12-10T00:25:01;83.60;;;35.10;;
27580;SDS011;63557;52.302;7.964;2022-12-10T00:30:02;84.40;;;38.88;;
27580;SDS011;63557;52.302;7.964;2022-12-10T00:35:02;84.70;;;35.38;;
27580;SDS011;63557;52.302;7.964;2022-12-10T00:40:03;102.78;;;37.38;;
27580;SDS011;63557;52.302;7.964;2022-12-10T00:45:04;86.78;;;38.15;;
27580;SDS011;63557;52.302;7.964;2022-12-10T00:50:04;84.05;;;36.10;;
27580;SDS011;63557;52.302;7.964;2022-12-10T00:55:05;89.95;;;39.53;;
27580;SDS011;63557;52.302;7.964;2022-12-10T01:00:05;90.45;;;39.88;;
27580;SDS011;63557;52.302;7.964;2022-12-10T01:05:06;89.82;;;39.70;;
27580;SDS011;63557;52.302;7.964;2022-12-10T01:10:07;93.95;;;39.03;;
27580;SDS011;63557;52.302;7.964;2022-12-10T01:15:07;101.90;;;43.58;;
27580;SDS011;63557;52.302;7.964;2022-12-10T01:20:08;93.95;;;42.38;;
27580;SDS011;63557;52.302;7.964;2022-12-10T01:25:08;90.40;;;41.30;;
27580;SDS011;63557;52.302;7.964;2022-12-10T01:30:09;97.00;;;42.77;;
27580;SDS011;63557;52.302;7.964;2022-12-10T01:35:10;96.30;;;41.85;;
27580;SDS011;63557;52.302;7.964;2022-12-10T01:40:11;98.60;;;41.05;;
27580;SDS011;63557;52.302;7.964;2022-12-10T01:45:11;90.20;;;40.60;;
27580;SDS011;63557;52.302;7.964;2022-12-10T01:50:12;102.88;;;41.85;;
27580;SDS011;63557;52.302;7.964;2022-12-10T02:00:32;96.53;;;42.85;;
27580;SDS011;63557;52.302;7.964;2022-12-10T02:05:41;106.43;;;45.03;;
27580;SDS011;63557;52.302;7.964;2022-12-10T02:10:46;101.75;;;44.63;;
27580;SDS011;63557;52.302;7.964;2022-12-10T02:15:54;101.05;;;42.08;;
27580;SDS011;63557;52.302;7.964;2022-12-10T02:21:00;91.05;;;42.15;;
27580;SDS011;63557;52.302;7.964;2022-12-10T02:26:15;97.13;;;42.25;;
27580;SDS011;63557;52.302;7.964;2022-12-10T02:31:27;98.90;;;45.13;;
27580;SDS011;63557;52.302;7.964;2022-12-10T02:36:29;99.50;;;44.45;;
27580;SDS011;63557;52.302;7.964;2022-12-10T02:41:33;93.68;;;43.47;;
27580;SDS011;63557;52.302;7.964;2022-12-10T02:46:35;93.20;;;43.17;;
27580;SDS011;63557;52.302;7.964;2022-12-10T02:51:39;97.88;;;44.20;;
27580;SDS011;63557;52.302;7.964;2022-12-10T02:56:43;94.72;;;42.63;;
27580;SDS011;63557;52.302;7.964;2022-12-10T03:01:53;83.70;;;40.17;;
27580;SDS011;63557;52.302;7.964;2022-12-10T03:07:01;95.50;;;42.30;;
27580;SDS011;63557;52.302;7.964;2022-12-10T03:17:02;88.32;;;41.92;;
27580;SDS011;63557;52.302;7.964;2022-12-10T03:22:04;89.97;;;42.67;;
27580;SDS011;63557;52.302;7.964;2022-12-10T03:27:05;92.00;;;40.15;;
27580;SDS011;63557;52.302;7.964;2022-12-10T03:32:06;94.25;;;43.15;;
27580;SDS011;63557;52.302;7.964;2022-12-10T03:37:07;95.90;;;42.50;;
27580;SDS011;63557;52.302;7.964;2022-12-10T03:42:08;97.90;;;44.03;;
27580;SDS011;63557;52.302;7.964;2022-12-10T03:47:10;87.50;;;40.47;;
27580;SDS011;63557;52.302;7.964;2022-12-10T03:52:12;91.20;;;40.22;;
27580;SDS011;63557;52.302;7.964;2022-12-10T03:57:12;87.40;;;40.70;;
27580;SDS011;63557;52.302;7.964;2022-12-10T04:02:13;90.97;;;41.33;;
27580;SDS011;63557;52.302;7.964;2022-12-10T04:07:13;83.57;;;39.00;;
27580;SDS011;63557;52.302;7.964;2022-12-10T04:12:13;82.35;;;39.25;;
27580;SDS011;63557;52.302;7.964;2022-12-10T04:17:14;70.97;;;31.77;;
27580;SDS011;63557;52.302;7.964;2022-12-10T04:22:14;79.40;;;37.88;;
27580;SDS011;63557;52.302;7.964;2022-12-10T04:27:35;71.40;;;33.03;;
27580;SDS011;63557;52.302;7.964;2022-12-10T04:32:36;72.60;;;34.13;;
27580;SDS011;63557;52.302;7.964;2022-12-10T04:37:36;73.13;;;37.20;;
27580;SDS011;63557;52.302;7.964;2022-12-10T04:42:37;49.63;;;25.52;;
27580;SDS011;63557;52.302;7.964;2022-12-10T04:47:37;64.23;;;34.03;;
27580;SDS011;63557;52.302;7.964;2022-12-10T04:52:38;68.57;;;32.67;;
27580;SDS011;63557;52.302;7.964;2022-12-10T04:57:38;59.45;;;29.67;;
27580;SDS011;63557;52.302;7.964;2022-12-10T05:02:38;53.90;;;28.53;;
27580;SDS011;63557;52.302;7.964;2022-12-10T05:07:39;64.50;;;32.20;;
27580;SDS011;63557;52.302;7.964;2022-12-10T05:12:39;58.50;;;27.60;;
27580;SDS011;63557;52.302;7.964;2022-12-10T05:17:39;60.47;;;30.77;;
27580;SDS011;63557;52.302;7.964;2022-12-10T05:22:40;58.33;;;30.40;;
27580;SDS011;63557;52.302;7.964;2022-12-10T05:27:59;65.55;;;32.97;;
27580;SDS011;63557;52.302;7.964;2022-12-10T05:32:59;50.07;;;26.13;;
27580;SDS011;63557;52.302;7.964;2022-12-10T05:37:59;53.53;;;28.73;;
27580;SDS011;63557;52.302;7.964;2022-12-10T05:43:00;58.53;;;32.58;;
27580;SDS011;63557;52.302;7.964;2022-12-10T05:48:00;66.93;;;34.03;;
27580;SDS011;63557;52.302;7.964;2022-12-10T05:53:01;61.90;;;33.25;;
27580;SDS011;63557;52.302;7.964;2022-12-10T05:58:01;67.97;;;33.57;;
27580;SDS011;63557;52.302;7.964;2022-12-10T06:03:01;66.15;;;33.55;;
27580;SDS011;63557;52.302;7.964;2022-12-10T06:08:03;58.80;;;31.88;;
27580;SDS011;63557;52.302;7.964;2022-12-10T06:13:03;61.08;;;34.88;;
27580;SDS011;63557;52.302;7.964;2022-12-10T06:18:04;65.40;;;35.08;;
27580;SDS011;63557;52.302;7.964;2022-12-10T06:23:05;64.57;;;35.28;;
27580;SDS011;63557;52.302;7.964;2022-12-10T06:28:06;69.47;;;34.10;;
27580;SDS011;63557;52.302;7.964;2022-12-10T06:33:06;65.43;;;35.70;;
27580;SDS011;63557;52.302;7.964;2022-12-10T06:38:06;70.17;;;37.70;;
27580;SDS011;63557;52.302;7.964;2022-12-10T06:43:07;75.77;;;38.20;;
27580;SDS011;63557;52.302;7.964;2022-12-10T06:48:07;68.97;;;35.88;;
27580;SDS011;63557;52.302;7.964;2022-12-10T06:53:08;72.07;;;38.58;;
27580;SDS011;63557;52.302;7.964;2022-12-10T06:58:08;74.27;;;37.97;;
27580;SDS011;63557;52.302;7.964;2022-12-10T07:03:09;76.33;;;39.00;;
27580;SDS011;63557;52.302;7.964;2022-12-10T07:08:09;68.70;;;36.63;;
27580;SDS011;63557;52.302;7.964;2022-12-10T07:13:09;72.30;;;36.60;;
27580;SDS011;63557;52.302;7.964;2022-12-10T07:18:10;75.45;;;40.00;;
27580;SDS011;63557;52.302;7.964;2022-12-10T07:23:10;73.30;;;38.17;;
27580;SDS011;63557;52.302;7.964;2022-12-10T07:28:11;74.28;;;37.00;;
27580;SDS011;63557;52.302;7.964;2022-12-10T07:33:11;77.78;;;36.58;;
27580;SDS011;63557;52.302;7.964;2022-12-10T07:38:12;71.87;;;35.17;;
27580;SDS011;63557;52.302;7.964;2022-12-10T07:43:12;70.57;;;36.43;;
27580;SDS011;63557;52.302;7.964;2022-12-10T07:48:12;73.45;;;35.42;;
27580;SDS011;63557;52.302;7.964;2022-12-10T07:53:13;67.40;;;34.83;;
27580;SDS011;63557;52.302;7.964;2022-12-10T07:58:13;74.53;;;36.92;;
27580;SDS011;63557;52.302;7.964;2022-12-10T08:03:13;74.47;;;37.53;;
27580;SDS011;63557;52.302;7.964;2022-12-10T08:08:14;75.93;;;37.38;;
27580;SDS011;63557;52.302;7.964;2022-12-10T08:13:14;74.90;;;37.43;;
27580;SDS011;63557;52.302;7.964;2022-12-10T08:18:14;76.82;;;37.67;;
27580;SDS011;63557;52.302;7.964;2022-12-10T08:23:15;78.68;;;38.85;;
27580;SDS011;63557;52.302;7.964;2022-12-10T08:28:15;74.85;;;37.63;;
27580;SDS011;63557;52.302;7.964;2022-12-10T08:33:16;73.33;;;36.87;;
27580;SDS011;63557;52.302;7.964;2022-12-10T08:38:16;84.50;;;39.10;;
27580;SDS011;63557;52.302;7.964;2022-12-10T08:43:16;76.53;;;38.87;;
27580;SDS011;63557;52.302;7.964;2022-12-10T08:48:17;70.90;;;38.33;;
27580;SDS011;63557;52.302;7.964;2022-12-10T08:53:17;82.57;;;40.73;;
27580;SDS011;63557;52.302;7.964;2022-12-10T08:58:18;72.33;;;38.10;;
27580;SDS011;63557;52.302;7.964;2022-12-10T09:03:18;73.70;;;38.95;;
27580;SDS011;63557;52.302;7.964;2022-12-10T09:08:18;73.80;;;39.70;;
27580;SDS011;63557;52.302;7.964;2022-12-10T09:13:19;76.40;;;39.43;;
27580;SDS011;63557;52.302;7.964;2022-12-10T09:18:19;74.47;;;40.43;;
27580;SDS011;63557;52.302;7.964;2022-12-10T09:23:19;69.63;;;37.63;;
27580;SDS011;63557;52.302;7.964;2022-12-10T09:28:20;74.40;;;38.10;;
27580;SDS011;63557;52.302;7.964;2022-12-10T09:33:20;74.07;;;39.03;;
27580;SDS011;63557;52.302;7.964;2022-12-10T09:38:21;74.90;;;38.45;;
27580;SDS011;63557;52.302;7.964;2022-12-10T09:48:52;68.50;;;37.78;;
27580;SDS011;63557;52.302;7.964;2022-12-10T09:53:56;64.10;;;37.70;;
27580;SDS011;63557;52.302;7.964;2022-12-10T09:59:01;66.72;;;36.17;;
27580;SDS011;63557;52.302;7.964;2022-12-10T10:04:03;69.68;;;38.70;;
27580;SDS011;63557;52.302;7.964;2022-12-10T10:09:03;69.28;;;37.83;;
27580;SDS011;63557;52.302;7.964;2022-12-10T10:14:14;64.50;;;36.08;;
27580;SDS011;63557;52.302;7.964;2022-12-10T10:19:17;61.85;;;35.47;;
27580;SDS011;63557;52.302;7.964;2022-12-10T10:24:19;66.55;;;36.70;;
27580;SDS011;63557;52.302;7.964;2022-12-10T10:29:21;66.93;;;36.70;;
27580;SDS011;63557;52.302;7.964;2022-12-10T10:34:22;65.57;;;35.28;;
27580;SDS011;63557;52.302;7.964;2022-12-10T10:44:24;65.47;;;34.65;;
27580;SDS011;63557;52.302;7.964;2022-12-10T10:49:26;63.78;;;35.60;;
27580;SDS011;63557;52.302;7.964;2022-12-10T10:59:36;68.60;;;37.47;;
27580;SDS011;63557;52.302;7.964;2022-12-10T11:04:43;66.88;;;34.13;;
27580;SDS011;63557;52.302;7.964;2022-12-10T11:09:44;69.20;;;38.72;;
27580;SDS011;63557;52.302;7.964;2022-12-10T11:14:45;67.43;;;35.47;;
27580;SDS011;63557;52.302;7.964;2022-12-10T11:24:55;64.22;;;37.88;;
27580;SDS011;63557;52.302;7.964;2022-12-10T11:30:02;70.35;;;38.13;;
27580;SDS011;63557;52.302;7.964;2022-12-10T11:45:14;65.57;;;38.42;;
27580;SDS011;63557;52.302;7.964;2022-12-10T11:55:36;70.30;;;39.95;;
27580;SDS011;63557;52.302;7.964;2022-12-10T12:15:56;71.97;;;40.53;;
27580;SDS011;63557;52.302;7.964;2022-12-10T12:20:58;72.05;;;41.25;;
27580;SDS011;63557;52.302;7.964;2022-12-10T12:26:01;78.80;;;42.25;;
27580;SDS011;63557;52.302;7.964;2022-12-10T12:31:05;70.35;;;41.47;;
27580;SDS011;63557;52.302;7.964;2022-12-10T12:36:08;76.13;;;42.13;;
27580;SDS011;63557;52.302;7.964;2022-12-10T12:41:17;80.95;;;44.83;;
27580;SDS011;63557;52.302;7.964;2022-12-10T12:46:37;85.22;;;45.28;;
27580;SDS011;63557;52.302;7.964;2022-12-10T13:07:08;77.93;;;41.08;;
27580;SDS011;63557;52.302;7.964;2022-12-10T13:27:37;78.97;;;42.10;;
27580;SDS011;63557;52.302;7.964;2022-12-10T13:42:57;75.53;;;42.55;;
27580;SDS011;63557;52.302;7.964;2022-12-10T13:48:19;83.90;;;41.35;;
27580;SDS011;63557;52.302;7.964;2022-12-10T14:08:33;75.95;;;42.97;;
27580;SDS011;63557;52.302;7.964;2022-12-10T14:13:42;77.78;;;42.35;;
27580;SDS011;63557;52.302;7.964;2022-12-10T14:18:45;80.63;;;41.53;;
27580;SDS011;63557;52.302;7.964;2022-12-10T14:23:48;86.88;;;42.95;;
27580;SDS011;63557;52.302;7.964;2022-12-10T14:28:50;76.43;;;41.45;;
27580;SDS011;63557;52.302;7.964;2022-12-10T14:33:50;79.57;;;40.42;;
27580;SDS011;63557;52.302;7.964;2022-12-10T14:38:52;79.28;;;41.80;;
27580;SDS011;63557;52.302;7.964;2022-12-10T14:43:53;80.43;;;41.45;;
27580;SDS011;63557;52.302;7.964;2022-12-10T14:48:54;79.55;;;42.55;;
27580;SDS011;63557;52.302;7.964;2022-12-10T14:53:57;86.57;;;43.83;;
27580;SDS011;63557;52.302;7.964;2022-12-10T14:59:11;85.90;;;43.47;;
27580;SDS011;63557;52.302;7.964;2022-12-10T15:09:15;85.00;;;43.58;;
27580;SDS011;63557;52.302;7.964;2022-12-10T15:14:17;90.97;;;44.88;;
27580;SDS011;63557;52.302;7.964;2022-12-10T15:24:27;90.63;;;47.78;;
27580;SDS011;63557;52.302;7.964;2022-12-10T15:29:32;95.65;;;47.33;;
27580;SDS011;63557;52.302;7.964;2022-12-10T15:34:36;90.70;;;46.03;;
27580;SDS011;63557;52.302;7.964;2022-12-10T15:39:43;95.97;;;46.83;;
27580;SDS011;63557;52.302;7.964;2022-12-10T15:44:45;88.32;;;45.25;;
27580;SDS011;63557;52.302;7.964;2022-12-10T15:49:46;94.80;;;46.58;;
27580;SDS011;63557;52.302;7.964;2022-12-10T15:54:47;93.70;;;46.80;;
27580;SDS011;63557;52.302;7.964;2022-12-10T15:59:49;101.00;;;48.65;;
27580;SDS011;63557;52.302;7.964;2022-12-10T16:04:50;90.97;;;46.67;;
27580;SDS011;63557;52.302;7.964;2022-12-10T16:09:51;103.03;;;51.55;;
27580;SDS011;63557;52.302;7.964;2022-12-10T16:14:53;99.05;;;48.95;;
27580;SDS011;63557;52.302;7.964;2022-12-10T16:19:57;106.70;;;51.87;;
27580;SDS011;63557;52.302;7.964;2022-12-10T16:24:58;104.40;;;50.35;;
27580;SDS011;63557;52.302;7.964;2022-12-10T16:29:58;103.00;;;51.90;;
27580;SDS011;63557;52.302;7.964;2022-12-10T16:35:00;106.28;;;52.53;;
27580;SDS011;63557;52.302;7.964;2022-12-10T16:40:00;99.47;;;52.93;;
27580;SDS011;63557;52.302;7.964;2022-12-10T16:45:01;104.03;;;51.83;;
27580;SDS011;63557;52.302;7.964;2022-12-10T16:50:01;107.27;;;52.20;;
27580;SDS011;63557;52.302;7.964;2022-12-10T16:55:02;106.18;;;53.65;;
27580;SDS011;63557;52.302;7.964;2022-12-10T17:00:03;114.45;;;53.70;;
27580;SDS011;63557;52.302;7.964;2022-12-10T17:05:05;116.05;;;55.00;;
27580;SDS011;63557;52.302;7.964;2022-12-10T17:10:10;120.53;;;58.53;;
27580;SDS011;63557;52.302;7.964;2022-12-10T17:15:11;119.47;;;58.25;;
27580;SDS011;63557;52.302;7.964;2022-12-10T17:20:17;118.22;;;55.50;;
27580;SDS011;63557;52.302;7.964;2022-12-10T17:30:17;114.55;;;53.80;;
27580;SDS011;63557;52.302;7.964;2022-12-10T17:35:19;115.78;;;55.35;;
27580;SDS011;63557;52.302;7.964;2022-12-10T17:40:21;124.90;;;55.58;;
27580;SDS011;63557;52.302;7.964;2022-12-10T17:45:22;113.65;;;56.08;;
27580;SDS011;63557;52.302;7.964;2022-12-10T17:50:26;122.60;;;54.73;;
27580;SDS011;63557;52.302;7.964;2022-12-10T17:55:30;128.82;;;58.05;;
27580;SDS011;63557;52.302;7.964;2022-12-10T18:00:32;122.75;;;58.70;;
27580;SDS011;63557;52.302;7.964;2022-12-10T18:05:33;119.80;;;57.00;;
27580;SDS011;63557;52.302;7.964;2022-12-10T18:10:34;135.95;;;61.00;;
27580;SDS011;63557;52.302;7.964;2022-12-10T18:15:34;138.95;;;60.22;;
27580;SDS011;63557;52.302;7.964;2022-12-10T18:20:36;133.50;;;61.72;;
27580;SDS011;63557;52.302;7.964;2022-12-10T18:25:37;138.15;;;60.47;;
27580;SDS011;63557;52.302;7.964;2022-12-10T18:30:38;141.55;;;62.10;;
27580;SDS011;63557;52.302;7.964;2022-12-10T18:35:38;140.33;;;60.87;;
27580;SDS011;63557;52.302;7.964;2022-12-10T18:40:39;131.03;;;58.63;;
27580;SDS011;63557;52.302;7.964;2022-12-10T18:45:39;132.10;;;60.25;;
27580;SDS011;63557;52.302;7.964;2022-12-10T18:50:39;129.32;;;59.78;;
27580;SDS011;63557;52.302;7.964;2022-12-10T18:55:40;149.68;;;62.90;;
27580;SDS011;63557;52.302;7.964;2022-12-10T19:00:40;144.63;;;61.33;;
27580;SDS011;63557;52.302;7.964;2022-12-10T19:05:41;147.27;;;63.27;;
27580;SDS011;63557;52.302;7.964;2022-12-10T19:10:41;140.40;;;61.47;;
27580;SDS011;63557;52.302;7.964;2022-12-10T19:15:42;152.07;;;62.05;;
27580;SDS011;63557;52.302;7.964;2022-12-10T19:20:42;142.43;;;58.67;;
27580;SDS011;63557;52.302;7.964;2022-12-10T19:25:42;145.73;;;59.90;;
27580;SDS011;63557;52.302;7.964;2022-12-10T19:30:44;153.18;;;62.78;;
27580;SDS011;63557;52.302;7.964;2022-12-10T19:35:44;156.10;;;62.60;;
27580;SDS011;63557;52.302;7.964;2022-12-10T19:40:45;152.18;;;61.67;;
27580;SDS011;63557;52.302;7.964;2022-12-10T19:45:45;157.23;;;62.20;;
27580;SDS011;63557;52.302;7.964;2022-12-10T19:50:46;153.30;;;63.45;;
27580;SDS011;63557;52.302;7.964;2022-12-10T19:55:46;177.67;;;63.17;;
27580;SDS011;63557;52.302;7.964;2022-12-10T20:00:46;168.75;;;64.05;;
27580;SDS011;63557;52.302;7.964;2022-12-10T20:05:47;167.52;;;62.33;;
27580;SDS011;63557;52.302;7.964;2022-12-10T20:10:48;178.97;;;65.30;;
27580;SDS011;63557;52.302;7.964;2022-12-10T20:15:48;174.63;;;63.75;;
27580;SDS011;63557;52.302;7.964;2022-12-10T20:20:49;199.77;;;69.37;;
27580;SDS011;63557;52.302;7.964;2022-12-10T20:25:49;195.00;;;69.53;;
27580;SDS011;63557;52.302;7.964;2022-12-10T20:30:50;187.20;;;70.47;;
27580;SDS011;63557;52.302;7.964;2022-12-10T20:35:50;176.33;;;65.97;;
27580;SDS011;63557;52.302;7.964;2022-12-10T20:40:50;188.48;;;68.35;;
27580;SDS011;63557;52.302;7.964;2022-12-10T20:45:51;175.50;;;63.47;;
27580;SDS011;63557;52.302;7.964;2022-12-10T20:50:51;198.20;;;67.83;;
27580;SDS011;63557;52.302;7.964;2022-12-10T20:55:52;203.10;;;70.47;;
27580;SDS011;63557;52.302;7.964;2022-12-10T21:00:52;197.80;;;64.57;;
27580;SDS011;63557;52.302;7.964;2022-12-10T21:05:53;195.10;;;66.50;;
27580;SDS011;63557;52.302;7.964;2022-12-10T21:10:53;187.82;;;63.90;;
27580;SDS011;63557;52.302;7.964;2022-12-10T21:15:55;203.93;;;67.15;;
27580;SDS011;63557;52.302;7.964;2022-12-10T21:20:58;202.80;;;63.35;;
27580;SDS011;63557;52.302;7.964;2022-12-10T21:25:59;189.60;;;61.17;;
27580;SDS011;63557;52.302;7.964;2022-12-10T21:30:59;163.63;;;58.60;;
27580;SDS011;63557;52.302;7.964;2022-12-10T21:35:59;174.00;;;59.13;;
27580;SDS011;63557;52.302;7.964;2022-12-10T21:41:00;170.80;;;58.83;;
27580;SDS011;63557;52.302;7.964;2022-12-10T21:46:24;166.13;;;56.85;;
27580;SDS011;63557;52.302;7.964;2022-12-10T21:51:24;164.27;;;57.47;;
27580;SDS011;63557;52.302;7.964;2022-12-10T21:56:24;160.63;;;57.53;;
27580;SDS011;63557;52.302;7.964;2022-12-10T22:01:25;153.83;;;54.07;;
27580;SDS011;63557;52.302;7.964;2022-12-10T22:06:25;150.88;;;59.30;;
27580;SDS011;63557;52.302;7.964;2022-12-10T22:11:26;153.23;;;55.40;;
27580;SDS011;63557;52.302;7.964;2022-12-10T22:16:27;155.13;;;50.92;;
27580;SDS011;63557;52.302;7.964;2022-12-10T22:21:27;143.48;;;53.10;;
27580;SDS011;63557;52.302;7.964;2022-12-10T22:26:27;155.23;;;55.70;;
27580;SDS011;63557;52.302;7.964;2022-12-10T22:31:29;149.02;;;52.35;;
27580;SDS011;63557;52.302;7.964;2022-12-10T22:36:29;164.80;;;55.63;;
27580;SDS011;63557;52.302;7.964;2022-12-10T22:41:29;148.30;;;51.65;;
27580;SDS011;63557;52.302;7.964;2022-12-10T22:46:30;157.50;;;54.10;;
27580;SDS011;63557;52.302;7.964;2022-12-10T22:51:30;157.40;;;52.33;;
27580;SDS011;63557;52.302;7.964;2022-12-10T22:56:30;164.13;;;54.80;;
27580;SDS011;63557;52.302;7.964;2022-12-10T23:01:31;172.15;;;55.00;;
27580;SDS011;63557;52.302;7.964;2022-12-10T23:06:31;176.87;;;57.53;;
27580;SDS011;63557;52.302;7.964;2022-12-10T23:11:32;178.18;;;57.22;;
27580;SDS011;63557;52.302;7.964;2022-12-10T23:16:32;159.80;;;56.60;;
27580;SDS011;63557;52.302;7.964;2022-12-10T23:21:32;162.03;;;51.63;;
27580;SDS011;63557;52.302;7.964;2022-12-10T23:26:33;183.53;;;58.60;;
27580;SDS011;63557;52.302;7.964;2022-12-10T23:31:33;171.52;;;58.05;;
27580;SDS011;63557;52.302;7.964;2022-12-10T23:36:33;176.30;;;58.77;;
27580;SDS011;63557;52.302;7.964;2022-12-10T23:41:34;178.43;;;57.87;;
27580;SDS011;63557;52.302;7.964;2022-12-10T23:46:34;189.80;;;63.58;;
27580;SDS011;63557;52.302;7.964;2022-12-10T23:51:34;183.60;;;60.60;;
27580;SDS011;63557;52.302;7.964;2022-12-10T23:56:35;212.10;;;64.57;;
